Time;durP1;ratioP1;P1;durP2;ratioP2;P2;SDS_P1;SDS_P2;PMS_P1;PMS_P2;Temp;Humidity;BMP_temperature;BMP_pressure;BME280_temperature;BME280_humidity;BME280_pressure;Samples;Min_cycle;Max_cycle;Signal;HPM_P1;HPM_P2
2022/06/19 00:01:11;;;;;;;6.00;3.90;;;16.00;99.90;;;;;;4917483;29;20185;-75
2022/06/19 00:03:44;;;;;;;5.47;4.05;;;16.00;99.90;;;;;;4917520;29;20040;-74
2022/06/19 00:06:10;;;;;;;5.32;4.82;;;15.90;99.90;;;;;;4917373;29;20487;-74
2022/06/19 00:08:36;;;;;;;6.30;4.97;;;15.90;99.90;;;;;;4917340;29;20107;-75
2022/06/19 00:11:03;;;;;;;4.50;4.10;;;15.90;99.90;;;;;;4916972;29;20028;-75
2022/06/19 00:13:29;;;;;;;10.40;5.07;;;15.80;99.90;;;;;;4915932;29;20028;-75
2022/06/19 00:15:55;;;;;;;4.43;4.03;;;15.80;99.90;;;;;;4917394;29;20116;-75
2022/06/19 00:18:21;;;;;;;6.03;4.18;;;15.80;99.90;;;;;;4917425;29;20036;-74
2022/06/19 00:20:47;;;;;;;4.82;4.10;;;15.80;99.90;;;;;;4917470;29;20380;-74
2022/06/19 00:23:13;;;;;;;4.28;3.95;;;15.80;99.90;;;;;;4917531;29;20051;-75
2022/06/19 00:25:39;;;;;;;6.85;3.72;;;15.80;99.90;;;;;;4915736;29;20078;-75
2022/06/19 00:28:05;;;;;;;5.07;4.57;;;15.70;99.90;;;;;;4917332;29;20028;-75
2022/06/19 00:30:31;;;;;;;6.82;4.28;;;15.70;99.90;;;;;;4916811;29;20036;-74
2022/06/19 00:32:58;;;;;;;4.15;3.75;;;15.60;99.90;;;;;;4915807;29;20077;-75
2022/06/19 00:35:26;;;;;;;4.40;4.03;;;15.60;99.90;;;;;;4915832;29;20475;-75
2022/06/19 00:37:52;;;;;;;4.90;4.45;;;15.60;99.90;;;;;;4917991;29;20082;-74
2022/06/19 00:40:18;;;;;;;5.18;4.13;;;15.60;99.90;;;;;;4920399;29;20040;-74
2022/06/19 00:42:44;;;;;;;5.82;4.20;;;15.60;99.90;;;;;;4920716;29;20048;-75
2022/06/19 00:45:31;;;;;;;4.78;4.38;;;15.50;99.90;;;;;;4920479;29;20422;-75
2022/06/19 00:47:57;;;;;;;4.82;3.80;;;15.50;99.90;;;;;;4918960;29;20036;-75
2022/06/19 00:50:31;;;;;;;4.95;4.45;;;15.50;99.90;;;;;;4919066;29;20029;-75
2022/06/19 00:52:57;;;;;;;9.57;6.05;;;15.40;99.90;;;;;;4920406;29;20028;-74
2022/06/19 00:55:30;;;;;;;5.50;4.13;;;15.40;99.90;;;;;;4920189;29;20031;-74
2022/06/19 00:58:04;;;;;;;7.10;4.18;;;15.40;99.90;;;;;;4920266;29;20087;-74
2022/06/19 01:00:31;;;;;;;5.40;4.13;;;15.30;99.90;;;;;;4920450;29;20035;-75
2022/06/19 01:03:03;;;;;;;5.05;4.60;;;15.30;99.90;;;;;;4920069;29;20028;-74
2022/06/19 01:05:30;;;;;;;5.75;5.22;;;15.30;99.90;;;;;;4920308;29;20025;-74
2022/06/19 01:07:59;;;;;;;5.63;4.60;;;15.20;99.90;;;;;;4920004;29;20032;-74
2022/06/19 01:10:24;;;;;;;9.10;5.07;;;15.20;99.90;;;;;;4919983;29;20024;-74
2022/06/19 01:12:50;;;;;;;7.63;5.53;;;15.20;99.90;;;;;;4919925;29;20036;-75
2022/06/19 01:15:20;;;;;;;4.70;4.22;;;15.20;99.90;;;;;;4919859;29;20036;-74
2022/06/19 01:17:52;;;;;;;7.10;4.60;;;15.20;99.90;;;;;;4918546;29;20024;-74
2022/06/19 01:20:18;;;;;;;5.40;4.55;;;15.30;99.90;;;;;;4920042;29;20029;-75
2022/06/19 01:23:10;;;;;;;10.15;4.90;;;15.20;99.90;;;;;;4918384;29;20075;-74
2022/06/19 01:25:39;;;;;;;7.30;4.40;;;15.20;99.90;;;;;;4919603;29;20048;-74
2022/06/19 01:31:07;;;;;;;6.22;4.97;;;15.10;99.90;;;;;;4919399;29;20532;-75
2022/06/19 01:33:42;;;;;;;5.05;4.55;;;15.10;99.90;;;;;;4918092;29;20036;-74
2022/06/19 01:36:10;;;;;;;5.75;4.88;;;15.00;99.90;;;;;;4919369;29;20117;-75
2022/06/19 01:38:37;;;;;;;4.90;4.43;;;15.00;99.90;;;;;;4918235;29;20032;-74
2022/06/19 01:41:10;;;;;;;5.63;4.88;;;15.00;99.90;;;;;;4918254;29;20027;-75
2022/06/19 01:43:36;;;;;;;7.68;5.10;;;15.00;99.90;;;;;;4919531;29;20123;-75
2022/06/19 01:46:04;;;;;;;5.05;4.57;;;15.00;99.90;;;;;;4918118;29;20123;-74
2022/06/19 01:48:31;;;;;;;7.18;4.90;;;15.00;99.90;;;;;;4918111;29;20457;-74
2022/06/19 01:51:00;;;;;;;7.20;4.50;;;15.00;99.90;;;;;;4917165;29;20040;-74
2022/06/19 01:53:31;;;;;;;5.18;4.47;;;15.00;99.90;;;;;;4918923;29;20032;-74
2022/06/19 01:55:57;;;;;;;4.70;4.30;;;15.00;99.90;;;;;;4917670;29;20080;-74
2022/06/19 01:58:27;;;;;;;6.10;4.50;;;14.90;99.90;;;;;;4919194;29;20036;-74
2022/06/19 02:00:53;;;;;;;5.20;4.80;;;14.90;99.90;;;;;;4919100;29;20028;-74
2022/06/19 02:03:40;;;;;;;7.05;4.60;;;14.90;99.90;;;;;;4919068;29;20512;-74
2022/06/19 02:06:08;;;;;;;5.05;4.55;;;14.80;99.90;;;;;;4919043;29;20032;-74
2022/06/19 02:08:35;;;;;;;7.30;4.88;;;14.80;99.90;;;;;;4918977;29;20039;-74
2022/06/19 02:11:03;;;;;;;7.30;4.65;;;14.80;99.90;;;;;;4917574;29;20482;-74
2022/06/19 02:13:31;;;;;;;6.07;4.88;;;14.80;99.90;;;;;;4919035;29;20036;-74
2022/06/19 02:15:57;;;;;;;10.85;5.43;;;14.70;99.90;;;;;;4917757;29;20056;-74
2022/06/19 02:18:26;;;;;;;8.93;5.03;;;14.70;99.90;;;;;;4918977;29;20142;-74
2022/06/19 02:20:52;;;;;;;;;;;14.70;99.90;;;;;;4917676;29;20054;-74
2022/06/19 02:23:38;;;;;;;5.57;4.93;;;14.70;99.90;;;;;;4918599;29;19915;-74
2022/06/19 02:26:07;;;;;;;7.05;4.45;;;14.60;99.90;;;;;;4918518;29;20055;-74
2022/06/19 02:28:36;;;;;;;9.45;5.60;;;14.60;99.90;;;;;;4918667;29;20537;-74
2022/06/19 02:31:06;;;;;;;7.10;4.95;;;14.60;99.90;;;;;;4918545;29;20520;-74
2022/06/19 02:33:38;;;;;;;6.50;5.00;;;14.60;99.90;;;;;;4918450;29;20072;-74
2022/06/19 02:36:39;;;;;;;5.30;4.90;;;14.60;99.90;;;;;;4918577;29;20173;-74
2022/06/19 02:39:18;;;;;;;6.45;5.13;;;14.70;99.90;;;;;;4916948;29;20174;-74
2022/06/19 02:41:56;;;;;;;6.18;5.40;;;14.70;99.90;;;;;;4918340;29;20088;-74
2022/06/19 02:44:22;;;;;;;6.22;5.05;;;14.60;99.90;;;;;;4918046;29;20062;-74
2022/06/19 02:46:47;;;;;;;6.65;5.50;;;14.60;99.90;;;;;;4918290;29;20464;-74
2022/06/19 02:49:13;;;;;;;6.30;4.82;;;14.60;99.90;;;;;;4918268;29;20362;-74
2022/06/19 02:51:38;;;;;;;8.02;5.35;;;14.60;99.90;;;;;;4909153;29;20024;-74
2022/06/19 02:54:04;;;;;;;5.43;4.90;;;14.60;99.90;;;;;;4918460;29;20032;-74
2022/06/19 02:56:29;;;;;;;5.63;5.13;;;14.60;99.90;;;;;;4918398;29;20059;-74
2022/06/19 02:58:55;;;;;;;7.43;4.75;;;14.60;99.90;;;;;;4916753;29;20122;-74
2022/06/19 03:01:21;;;;;;;5.20;4.78;;;14.50;99.90;;;;;;4916575;29;20028;-74
2022/06/19 03:03:46;;;;;;;5.20;4.75;;;14.50;99.90;;;;;;4917881;29;20032;-74
2022/06/19 03:06:12;;;;;;;5.65;4.68;;;14.50;99.90;;;;;;4917955;29;20040;-74
2022/06/19 03:08:37;;;;;;;5.15;4.68;;;14.50;99.90;;;;;;4917950;29;20032;-74
2022/06/19 03:11:06;;;;;;;5.63;5.13;;;14.50;99.90;;;;;;4916548;29;20083;-74
2022/06/19 03:13:32;;;;;;;6.30;5.07;;;14.50;99.90;;;;;;4917882;29;20032;-74
2022/06/19 03:16:07;;;;;;;5.72;4.82;;;14.50;99.90;;;;;;4916521;29;20040;-74
2022/06/19 03:18:33;;;;;;;5.13;4.63;;;14.50;99.90;;;;;;4917803;29;20051;-74
2022/06/19 03:20:59;;;;;;;5.55;5.05;;;14.50;99.90;;;;;;4918008;29;20107;-74
2022/06/19 03:23:25;;;;;;;5.40;4.90;;;14.50;99.90;;;;;;4917688;29;20168;-74
2022/06/19 03:25:50;;;;;;;5.35;4.90;;;14.40;99.90;;;;;;4917385;29;20063;-74
2022/06/19 03:28:16;;;;;;;5.15;4.63;;;14.40;99.90;;;;;;4917655;29;20039;-74
2022/06/19 03:30:42;;;;;;;6.18;5.38;;;14.40;99.90;;;;;;4916287;29;20036;-74
2022/06/19 03:33:07;;;;;;;8.02;5.72;;;14.40;99.90;;;;;;4917341;29;20039;-74
2022/06/19 03:35:33;;;;;;;5.55;5.05;;;14.50;99.90;;;;;;4917513;29;20087;-74
2022/06/19 03:37:59;;;;;;;6.05;5.43;;;14.40;99.90;;;;;;4917730;29;20087;-74
2022/06/19 03:40:25;;;;;;;7.30;5.35;;;14.40;99.90;;;;;;4917271;29;20032;-74
2022/06/19 03:42:50;;;;;;;8.07;5.88;;;14.50;99.90;;;;;;4917486;29;20036;-74
2022/06/19 03:45:16;;;;;;;6.47;5.53;;;14.50;99.90;;;;;;4917813;29;20107;-74
2022/06/19 03:47:41;;;;;;;6.45;5.55;;;14.60;99.90;;;;;;4916533;29;20125;-74
2022/06/19 03:50:08;;;;;;;8.45;6.07;;;14.60;99.90;;;;;;4917658;29;20070;-74
2022/06/19 03:52:34;;;;;;;5.95;5.35;;;14.70;99.90;;;;;;4917423;29;20079;-74
2022/06/19 03:54:59;;;;;;;7.88;5.43;;;14.70;99.90;;;;;;4917247;29;20032;-74
2022/06/19 03:57:25;;;;;;;5.78;5.28;;;14.70;99.90;;;;;;4917647;29;20035;-74
2022/06/19 03:59:51;;;;;;;7.00;6.30;;;14.80;99.90;;;;;;4916189;29;20028;-75
2022/06/19 04:02:18;;;;;;;8.50;6.57;;;14.80;99.90;;;;;;4916002;29;20028;-74
2022/06/19 04:04:44;;;;;;;7.07;6.43;;;14.90;99.90;;;;;;4915862;29;20504;-74
2022/06/19 04:07:12;;;;;;;6.38;5.78;;;15.00;99.90;;;;;;4917362;29;20032;-74
2022/06/19 04:09:37;;;;;;;8.57;6.72;;;15.10;99.90;;;;;;4915884;29;20384;-74
2022/06/19 04:12:03;;;;;;;8.45;6.47;;;15.30;99.90;;;;;;4917075;29;20039;-75
2022/06/19 04:14:29;;;;;;;7.32;6.47;;;15.40;99.90;;;;;;4919450;29;20056;-74
2022/06/19 04:16:55;;;;;;;6.72;5.97;;;15.50;99.90;;;;;;4920969;29;20488;-75
2022/06/19 04:19:20;;;;;;;8.10;6.40;;;15.60;99.90;;;;;;4919755;29;20063;-74
2022/06/19 04:21:47;;;;;;;8.20;7.25;;;15.70;99.90;;;;;;4919550;29;20404;-75
2022/06/19 04:24:19;;;;;;;7.63;6.82;;;15.80;99.90;;;;;;4920756;29;20043;-75
2022/06/19 04:26:45;;;;;;;8.35;6.82;;;15.90;99.90;;;;;;4920465;29;20135;-76
2022/06/19 04:29:13;;;;;;;7.88;6.80;;;16.00;99.90;;;;;;4920770;29;20060;-75
2022/06/19 04:31:39;;;;;;;8.60;6.70;;;16.10;99.90;;;;;;4921125;29;20099;-76
2022/06/19 04:34:04;;;;;;;8.25;6.60;;;16.20;99.90;;;;;;4921209;29;20039;-76
2022/06/19 04:36:31;;;;;;;9.32;7.32;;;16.30;99.90;;;;;;4920712;29;20029;-75
2022/06/19 04:38:57;;;;;;;8.13;6.50;;;16.40;99.90;;;;;;4919240;29;20048;-75
2022/06/19 04:41:28;;;;;;;5.93;5.43;;;16.40;99.90;;;;;;4920488;29;20119;-75
2022/06/19 04:43:56;;;;;;;7.15;6.22;;;16.50;99.90;;;;;;4920469;29;20083;-76
2022/06/19 04:46:22;;;;;;;7.47;6.63;;;16.60;99.90;;;;;;4919108;29;20123;-74
2022/06/19 04:48:49;;;;;;;7.53;6.72;;;16.80;99.90;;;;;;4920360;29;20090;-74
2022/06/19 04:51:15;;;;;;;7.28;6.30;;;16.90;99.90;;;;;;4920061;29;20488;-75
2022/06/19 04:53:41;;;;;;;7.80;6.60;;;17.10;99.90;;;;;;4920345;29;20028;-74
2022/06/19 04:56:09;;;;;;;10.88;6.80;;;17.30;99.90;;;;;;4918967;29;20031;-74
2022/06/19 04:58:35;;;;;;;7.22;5.97;;;17.40;99.90;;;;;;4920443;29;20035;-74
2022/06/19 05:01:06;;;;;;;8.75;5.55;;;17.60;99.90;;;;;;4920428;29;20032;-57
2022/06/19 05:03:32;;;;;;;6.72;6.13;;;17.70;99.90;;;;;;4920017;29;20504;-57
2022/06/19 05:05:58;;;;;;;6.53;5.95;;;17.90;99.90;;;;;;4919861;29;20028;-57
2022/06/19 05:08:23;;;;;;;8.55;6.20;;;18.00;99.90;;;;;;4919821;29;20028;-57
2022/06/19 05:10:49;;;;;;;11.40;6.10;;;18.20;99.90;;;;;;4919178;29;20032;-57
2022/06/19 05:13:22;;;;;;;6.20;5.60;;;18.40;99.90;;;;;;4919942;29;20119;-57
2022/06/19 05:15:49;;;;;;;6.47;5.28;;;18.50;99.90;;;;;;4920193;29;20032;-57
2022/06/19 05:18:16;;;;;;;7.75;6.22;;;18.60;99.90;;;;;;4920141;29;20111;-57
2022/06/19 05:20:43;;;;;;;9.98;6.30;;;18.70;99.90;;;;;;4919818;29;20039;-57
2022/06/19 05:23:09;;;;;;;7.22;5.30;;;18.80;99.90;;;;;;4919370;29;20059;-57
2022/06/19 05:25:36;;;;;;;19.35;6.63;;;18.90;99.90;;;;;;4918402;29;20106;-57
2022/06/19 05:28:02;;;;;;;5.93;5.43;;;19.00;99.90;;;;;;4918408;29;20473;-58
2022/06/19 05:30:27;;;;;;;5.93;5.10;;;19.20;99.90;;;;;;4920317;29;20083;-57
2022/06/19 05:32:53;;;;;;;5.60;5.10;;;19.30;99.90;;;;;;4919899;29;20028;-57
2022/06/19 05:35:19;;;;;;;5.57;4.90;;;19.40;99.90;;;;;;4919873;29;20025;-57
2022/06/19 05:37:44;;;;;;;6.20;4.85;;;19.50;99.90;;;;;;4919500;29;20032;-57
2022/06/19 05:40:11;;;;;;;4.97;4.47;;;19.60;99.90;;;;;;4918117;29;20115;-80
2022/06/19 05:42:37;;;;;;;6.35;4.45;;;19.70;99.90;;;;;;4919199;29;20032;-80
2022/06/19 05:45:03;;;;;;;4.35;3.95;;;19.80;99.90;;;;;;4919226;29;20127;-80
2022/06/19 05:47:29;;;;;;;4.22;3.65;;;19.80;99.90;;;;;;4919345;29;20032;-80
2022/06/19 05:49:56;;;;;;;4.25;3.90;;;19.90;99.90;;;;;;4919370;29;20116;-80
2022/06/19 05:52:24;;;;;;;3.33;3.10;;;19.90;99.90;;;;;;4919275;29;20036;-81
2022/06/19 05:54:51;;;;;;;3.88;3.03;;;20.00;99.90;;;;;;4919187;29;20039;-80
2022/06/19 05:57:17;;;;;;;6.22;3.08;;;20.00;99.90;;;;;;4919193;29;20029;-80
2022/06/19 05:59:43;;;;;;;7.93;3.38;;;20.10;99.90;;;;;;4919407;29;20032;-81
2022/06/19 06:02:12;;;;;;;3.08;2.65;;;20.20;99.90;;;;;;4919105;29;20028;-80
2022/06/19 06:04:38;;;;;;;3.60;3.00;;;20.20;99.90;;;;;;4919257;29;20036;-81
2022/06/19 06:07:07;;;;;;;3.13;2.85;;;20.30;99.90;;;;;;4919208;29;20027;-83
2022/06/19 06:09:33;;;;;;;3.60;2.90;;;20.40;99.90;;;;;;4918234;29;20091;-81
2022/06/19 06:11:59;;;;;;;4.55;3.25;;;20.40;99.90;;;;;;4919389;29;20028;-82
2022/06/19 06:14:24;;;;;;;2.92;2.72;;;20.50;99.90;;;;;;4919123;29;20103;-82
2022/06/19 06:16:50;;;;;;;5.07;2.45;;;20.60;99.90;;;;;;4919331;29;20051;-81
2022/06/19 06:19:16;;;;;;;2.70;2.50;;;20.80;99.90;;;;;;4917750;29;20132;-83
2022/06/19 06:21:42;;;;;;;2.40;2.05;;;21.10;99.90;;;;;;4918868;29;20043;-81
2022/06/19 06:24:08;;;;;;;3.42;2.50;;;21.50;99.90;;;;;;4918669;29;20099;-79
2022/06/19 06:26:34;;;;;;;2.10;2.00;;;22.00;99.90;;;;;;4918622;29;20052;-64
2022/06/19 06:29:00;;;;;;;4.03;1.95;;;22.50;99.90;;;;;;4918661;29;20111;-63
2022/06/19 06:31:26;;;;;;;2.65;2.00;;;22.90;99.90;;;;;;4918192;29;20028;-64
2022/06/19 06:33:52;;;;;;;4.55;1.83;;;23.20;99.90;;;;;;4918450;29;20115;-64
2022/06/19 06:36:18;;;;;;;2.20;1.88;;;23.50;99.90;;;;;;4917936;29;20449;-64
2022/06/19 06:38:44;;;;;;;1.65;1.55;;;23.90;99.90;;;;;;4918359;29;20032;-63
2022/06/19 06:41:12;;;;;;;1.92;1.83;;;24.20;98.90;;;;;;4918174;29;20028;-64
2022/06/19 06:43:40;;;;;;;1.77;1.67;;;24.40;97.40;;;;;;4918542;29;20032;-63
2022/06/19 06:46:07;;;;;;;3.65;1.83;;;24.60;97.30;;;;;;4918529;29;20035;-64
2022/06/19 06:48:33;;;;;;;1.52;1.52;;;24.80;96.80;;;;;;4918838;29;20111;-63
2022/06/19 06:50:59;;;;;;;2.80;1.50;;;25.00;96.50;;;;;;4918052;29;20035;-65
2022/06/19 06:53:25;;;;;;;3.28;1.70;;;25.30;95.40;;;;;;4918089;29;20028;-63
2022/06/19 06:55:56;;;;;;;1.48;1.38;;;25.20;93.60;;;;;;4918099;29;20039;-65
2022/06/19 06:58:21;;;;;;;1.77;1.67;;;25.50;91.80;;;;;;4916876;29;20388;-65
2022/06/19 07:00:47;;;;;;;5.43;1.48;;;25.70;92.50;;;;;;4918281;29;20024;-66
2022/06/19 07:03:12;;;;;;;1.48;1.10;;;25.80;91.10;;;;;;4918199;29;20083;-64
2022/06/19 07:05:38;;;;;;;2.17;1.50;;;26.00;91.50;;;;;;4918240;29;20055;-66
2022/06/19 07:08:05;;;;;;;2.95;1.65;;;26.30;91.20;;;;;;4917814;29;20035;-65
2022/06/19 07:10:31;;;;;;;2.75;1.25;;;26.60;90.40;;;;;;4917819;29;20603;-66
2022/06/19 07:12:57;;;;;;;1.48;1.38;;;26.80;87.30;;;;;;4916548;29;20056;-64
2022/06/19 07:15:23;;;;;;;2.58;1.55;;;26.70;85.30;;;;;;4917642;29;20051;-65
2022/06/19 07:17:49;;;;;;;2.28;1.25;;;26.80;85.60;;;;;;4917643;29;20500;-67
2022/06/19 07:20:15;;;;;;;1.45;1.30;;;26.70;82.40;;;;;;4917902;29;20028;-67
2022/06/19 07:22:41;;;;;;;2.25;1.30;;;26.70;85.10;;;;;;4917653;29;20051;-68
2022/06/19 07:25:07;;;;;;;1.98;1.80;;;26.70;85.00;;;;;;4917393;29;20432;-65
2022/06/19 07:27:33;;;;;;;5.10;1.75;;;27.00;81.70;;;;;;4917924;29;20035;-65
2022/06/19 07:29:59;;;;;;;7.40;2.00;;;27.10;81.60;;;;;;4916228;29;20366;-66
2022/06/19 07:32:25;;;;;;;1.65;1.55;;;27.40;81.10;;;;;;4917515;29;20076;-63
2022/06/19 07:34:50;;;;;;;3.17;1.40;;;27.70;78.30;;;;;;4917625;29;20032;-60
2022/06/19 07:37:16;;;;;;;2.75;1.83;;;27.20;76.30;;;;;;4917266;29;20408;-60
2022/06/19 07:39:42;;;;;;;3.45;1.63;;;27.30;77.80;;;;;;4917500;29;20032;-60
2022/06/19 07:42:08;;;;;;;6.78;1.40;;;27.40;77.60;;;;;;4917520;29;20032;-61
2022/06/19 07:44:38;;;;;;;1.73;1.63;;;27.20;76.70;;;;;;4917356;29;20043;-61
2022/06/19 07:50:09;;;;;;;1.50;1.40;;;27.40;76.60;;;;;;4921319;29;20035;-62
2022/06/19 07:52:39;;;;;;;4.72;1.60;;;27.90;75.40;;;;;;4921837;29;20097;-59
2022/06/19 07:55:07;;;;;;;1.50;1.40;;;28.00;75.40;;;;;;4919952;29;20028;-61
2022/06/19 07:57:33;;;;;;;2.85;1.50;;;28.40;73.50;;;;;;4921245;29;20087;-60
2022/06/19 07:59:59;;;;;;;4.40;1.70;;;28.90;72.80;;;;;;4920860;29;20373;-59
2022/06/19 08:02:25;;;;;;;2.05;1.90;;;29.20;70.60;;;;;;4921147;29;20031;-62
2022/06/19 08:04:51;;;;;;;2.33;1.33;;;29.60;67.70;;;;;;4920746;29;20035;-62
2022/06/19 08:07:18;;;;;;;1.77;1.20;;;29.50;64.20;;;;;;4921320;29;20376;-64
2022/06/19 08:09:44;;;;;;;2.58;1.55;;;29.40;67.20;;;;;;4921070;29;20036;-62
2022/06/19 08:12:10;;;;;;;3.63;1.50;;;29.60;65.70;;;;;;4921059;29;20055;-60
2022/06/19 08:14:37;;;;;;;2.15;1.40;;;29.70;63.80;;;;;;4920887;29;20032;-65
2022/06/19 08:17:03;;;;;;;4.95;1.25;;;29.80;63.00;;;;;;4919558;29;20039;-59
2022/06/19 08:19:28;;;;;;;1.60;0.93;;;29.80;61.80;;;;;;4920690;29;20036;-60
2022/06/19 08:21:54;;;;;;;2.47;1.30;;;30.20;59.60;;;;;;4920584;29;20020;-60
2022/06/19 08:24:19;;;;;;;10.55;1.27;;;30.00;56.70;;;;;;4920359;29;20076;-60
2022/06/19 08:26:45;;;;;;;2.45;1.00;;;29.90;58.90;;;;;;4920352;29;20107;-60
2022/06/19 08:29:11;;;;;;;4.72;1.00;;;30.10;56.80;;;;;;4920427;29;20484;-59
2022/06/19 08:31:37;;;;;;;1.30;1.20;;;30.30;56.20;;;;;;4920540;29;20461;-71
2022/06/19 08:34:03;;;;;;;1.55;0.98;;;30.20;60.60;;;;;;4920437;29;20047;-73
2022/06/19 08:36:31;;;;;;;3.67;1.10;;;30.80;57.90;;;;;;4920564;29;20028;-73
2022/06/19 08:38:58;;;;;;;;;;;32.60;52.20;;;;;;4921097;29;20024;-72
2022/06/19 08:41:45;;;;;;;1.35;0.90;;;33.20;49.10;;;;;;4920100;29;20271;-73
2022/06/19 08:44:19;;;;;;;3.97;1.00;;;33.80;50.30;;;;;;4920700;29;20063;-73
2022/06/19 08:47:19;;;;;;;2.33;0.90;;;34.10;47.10;;;;;;4920380;29;20460;-69
2022/06/19 08:49:57;;;;;;;5.40;1.25;;;34.00;47.00;;;;;;4920595;29;20028;-71
2022/06/19 08:52:22;;;;;;;1.25;0.80;;;33.90;46.70;;;;;;4920275;29;20071;-72
2022/06/19 08:55:09;;;;;;;0.90;0.90;;;34.20;45.20;;;;;;4920503;29;20485;-71
2022/06/19 08:58:03;;;;;;;2.63;1.08;;;34.70;46.10;;;;;;4920144;29;20032;-71
2022/06/19 09:00:56;;;;;;;3.10;1.20;;;34.50;45.40;;;;;;4920162;29;20028;-73
2022/06/19 09:06:45;;;;;;;1.42;0.93;;;34.70;42.70;;;;;;4919746;29;20120;-79
2022/06/19 09:09:17;;;;;;;1.92;1.45;;;34.00;43.50;;;;;;4918795;29;20029;-78
2022/06/19 09:12:14;;;;;;;5.88;1.15;;;33.60;43.30;;;;;;4920195;29;20047;-79
2022/06/19 09:15:05;;;;;;;7.25;1.20;;;33.40;44.00;;;;;;4934784;29;20032;-81
2022/06/19 09:17:51;;;;;;;3.15;1.00;;;33.90;44.00;;;;;;4919885;29;20421;-77
2022/06/19 09:20:23;;;;;;;4.18;1.33;;;32.20;44.10;;;;;;4919784;29;20046;-78
2022/06/19 09:23:09;;;;;;;3.78;1.38;;;32.40;46.00;;;;;;4919946;29;20060;-77
2022/06/19 09:25:58;;;;;;;4.75;1.33;;;32.40;44.60;;;;;;4919291;29;20074;-78
2022/06/19 09:28:36;;;;;;;6.90;2.05;;;32.30;44.10;;;;;;4919490;29;20028;-79
2022/06/19 09:31:04;;;;;;;2.22;1.00;;;32.00;46.10;;;;;;4919438;29;20564;-81
2022/06/19 09:33:41;;;;;;;3.92;1.10;;;32.10;46.10;;;;;;4918204;29;20473;-79
2022/06/19 09:36:22;;;;;;;2.30;0.90;;;31.90;46.30;;;;;;4919520;29;20024;-80
2022/06/19 09:38:55;;;;;;;3.42;1.27;;;32.60;45.60;;;;;;4919482;29;20029;-82
2022/06/19 09:41:40;;;;;;;10.70;1.02;;;33.20;44.50;;;;;;4918177;29;20059;-83
2022/06/19 09:44:30;;;;;;;2.75;1.25;;;33.80;43.90;;;;;;4919694;29;20032;-82
2022/06/19 09:46:59;;;;;;;5.35;1.25;;;33.40;43.60;;;;;;4919662;29;20040;-80
2022/06/19 09:49:38;;;;;;;1.17;0.93;;;32.90;43.80;;;;;;4919595;29;20020;-81
2022/06/19 09:52:11;;;;;;;3.83;1.08;;;32.80;44.20;;;;;;4918321;29;20428;-80
2022/06/19 09:54:51;;;;;;;5.32;1.75;;;32.90;44.40;;;;;;4919463;29;20064;-81
2022/06/19 09:57:31;;;;;;;2.22;1.30;;;33.40;44.50;;;;;;4919393;29;20075;-79
2022/06/19 10:00:07;;;;;;;5.78;1.27;;;33.10;43.80;;;;;;4919197;29;20031;-70
2022/06/19 10:02:53;;;;;;;2.90;1.13;;;33.10;46.40;;;;;;4919030;29;20043;-68
2022/06/19 10:05:49;;;;;;;2.95;1.13;;;34.80;43.60;;;;;;4918406;29;20071;-70
2022/06/19 10:08:31;;;;;;;1.73;1.23;;;35.30;43.10;;;;;;4918636;29;20389;-70
2022/06/19 10:11:02;;;;;;;4.65;1.27;;;35.10;43.00;;;;;;4918365;29;20032;-71
2022/06/19 10:13:45;;;;;;;4.00;1.10;;;35.40;42.30;;;;;;4918820;29;20024;-68
2022/06/19 10:16:21;;;;;;;3.53;1.38;;;36.10;41.90;;;;;;4918864;29;20035;-69
2022/06/19 10:18:53;;;;;;;6.70;1.08;;;35.80;41.40;;;;;;4919059;29;20024;-68
2022/06/19 10:22:14;;;;;;;1.33;1.20;;;35.50;41.20;;;;;;4918552;29;20087;-68
2022/06/19 10:24:57;;;;;;;5.68;1.10;;;35.10;42.50;;;;;;4895645;29;20415;-68
2022/06/19 10:27:42;;;;;;;3.25;1.38;;;35.20;42.70;;;;;;4918562;29;20179;-68
2022/06/19 10:30:16;;;;;;;1.52;1.42;;;36.00;42.20;;;;;;4918452;29;20107;-68
2022/06/19 10:33:00;;;;;;;1.98;1.10;;;36.50;41.10;;;;;;4918444;29;20381;-69
2022/06/19 10:35:32;;;;;;;4.32;1.77;;;35.70;41.80;;;;;;4918461;29;20044;-68
2022/06/19 10:38:12;;;;;;;5.13;1.50;;;35.70;42.60;;;;;;4911724;29;20078;-68
2022/06/19 10:44:46;;;;;;;5.82;2.08;;;35.30;42.60;;;;;;4889233;29;20039;-68
2022/06/19 10:47:30;;;;;;;5.50;1.60;;;34.30;42.30;;;;;;4916813;29;20059;-77
2022/06/19 10:50:03;;;;;;;6.18;1.60;;;33.70;43.40;;;;;;4924257;29;20035;-85
2022/06/19 10:53:07;;;;;;;6.93;2.20;;;33.40;43.40;;;;;;4936306;29;20032;-81
2022/06/19 10:55:46;;;;;;;4.60;1.98;;;32.70;45.20;;;;;;4937114;29;20032;-80
2022/06/19 10:58:26;;;;;;;5.00;1.70;;;33.30;45.00;;;;;;4937489;29;20031;-84
2022/06/19 11:00:59;;;;;;;3.58;1.33;;;33.80;44.20;;;;;;4936804;29;20023;-83
2022/06/19 11:06:26;;;;;;;2.85;1.42;;;33.90;43.60;;;;;;4936750;29;20499;-81
2022/06/19 11:09:03;;;;;;;3.63;1.88;;;33.90;43.90;;;;;;4935980;29;20036;-81
2022/06/19 11:11:32;;;;;;;6.05;1.85;;;33.60;43.70;;;;;;4935308;29;20396;-80
2022/06/19 11:14:01;;;;;;;5.57;1.60;;;33.70;44.40;;;;;;4936496;29;20055;-80
2022/06/19 11:16:28;;;;;;;6.07;1.30;;;33.90;44.60;;;;;;4936833;29;20035;-80
2022/06/19 11:18:57;;;;;;;5.60;1.93;;;33.60;44.70;;;;;;4936768;29;20035;-80
2022/06/19 11:21:26;;;;;;;2.72;1.70;;;33.90;44.00;;;;;;4935119;29;20036;-80
2022/06/19 11:23:59;;;;;;;2.83;1.58;;;33.60;44.20;;;;;;4936273;29;20490;-80
2022/06/19 11:26:43;;;;;;;3.40;2.00;;;33.40;44.00;;;;;;4935021;29;20044;-80
2022/06/19 11:29:18;;;;;;;6.75;2.33;;;34.00;45.10;;;;;;4935724;29;20078;-79
2022/06/19 11:32:13;;;;;;;2.38;1.38;;;34.10;43.50;;;;;;4934850;29;20546;-81
2022/06/19 11:34:53;;;;;;;4.57;1.58;;;33.90;43.70;;;;;;4935306;29;20036;-79
2022/06/19 11:37:22;;;;;;;3.70;1.58;;;34.20;43.80;;;;;;4936596;29;20031;-80
2022/06/19 11:39:58;;;;;;;3.80;1.58;;;34.60;42.10;;;;;;4936460;29;20031;-80
2022/06/19 11:42:33;;;;;;;3.03;1.40;;;34.80;42.70;;;;;;4934898;29;20041;-79
2022/06/19 11:45:14;;;;;;;2.47;1.27;;;34.80;42.20;;;;;;4936462;29;20046;-79
2022/06/19 11:47:53;;;;;;;6.00;1.40;;;35.30;41.80;;;;;;4936554;29;20038;-80
2022/06/19 11:50:21;;;;;;;6.13;1.58;;;34.40;41.90;;;;;;4936314;29;20392;-80
2022/06/19 11:52:57;;;;;;;5.70;1.17;;;34.00;42.40;;;;;;4936386;29;20032;-82
2022/06/19 11:55:31;;;;;;;3.70;1.60;;;33.80;43.40;;;;;;4936371;29;20035;-78
2022/06/19 11:57:59;;;;;;;6.05;1.23;;;34.20;42.80;;;;;;4935132;29;20032;-79
2022/06/19 12:00:30;;;;;;;2.03;1.27;;;34.80;42.60;;;;;;4934837;29;20073;-78
2022/06/19 12:03:06;;;;;;;7.60;1.65;;;35.20;40.80;;;;;;4936368;29;20063;-79
2022/06/19 12:05:35;;;;;;;6.82;1.45;;;34.60;41.70;;;;;;4935336;29;20039;-79
2022/06/19 12:08:21;;;;;;;4.05;1.33;;;34.40;42.00;;;;;;4935013;29;20392;-79
2022/06/19 12:10:56;;;;;;;4.85;1.70;;;34.80;42.10;;;;;;4935417;29;20054;-78
2022/06/19 12:13:36;;;;;;;5.55;1.85;;;35.30;41.40;;;;;;4936479;29;20040;-82
2022/06/19 12:16:15;;;;;;;7.43;1.42;;;35.70;40.50;;;;;;4936498;29;20054;-80
2022/06/19 12:18:41;;;;;;;3.30;1.38;;;35.30;42.30;;;;;;4936374;29;20046;-81
2022/06/19 12:21:18;;;;;;;4.63;1.48;;;35.90;40.70;;;;;;4936058;29;20111;-78
2022/06/19 12:24:13;;;;;;;4.15;1.42;;;36.80;40.40;;;;;;4934912;29;20040;-80
2022/06/19 12:26:48;;;;;;;3.80;1.40;;;35.70;39.70;;;;;;4936240;29;20048;-78
2022/06/19 12:29:36;;;;;;;5.05;1.90;;;36.30;40.80;;;;;;4936179;29;20116;-78
2022/06/19 12:32:34;;;;;;;5.03;1.25;;;37.50;39.20;;;;;;4935906;29;20040;-78
2022/06/19 12:35:05;;;;;;;;;;;37.60;38.40;;;;;;4916611;29;20035;-78
2022/06/19 12:37:32;;;;;;;3.30;1.55;;;37.60;38.20;;;;;;4939757;29;19913;-80
2022/06/19 12:39:58;;;;;;;8.05;1.60;;;38.00;38.90;;;;;;4939514;29;20060;-78
2022/06/19 12:43:08;;;;;;;6.10;1.90;;;37.50;38.20;;;;;;4938017;29;20031;-77
2022/06/19 12:45:45;;;;;;;10.05;1.30;;;37.20;39.50;;;;;;4907155;29;20066;-80
2022/06/19 12:48:25;;;;;;;6.28;1.23;;;36.00;39.10;;;;;;4939721;29;20030;-79
2022/06/19 12:51:14;;;;;;;2.53;1.45;;;36.20;39.80;;;;;;4938993;29;20532;-78
2022/06/19 12:53:51;;;;;;;5.15;1.20;;;35.90;38.80;;;;;;4937943;29;20035;-79
2022/06/19 12:56:20;;;;;;;3.97;1.73;;;35.90;40.00;;;;;;4938996;29;20399;-80
2022/06/19 12:59:13;;;;;;;6.32;1.65;;;35.40;40.70;;;;;;4937873;29;20374;-77
2022/06/19 13:02:16;;;;;;;2.38;1.70;;;35.80;39.90;;;;;;4938081;29;20098;-78
2022/06/19 13:05:02;;;;;;;4.15;1.50;;;35.40;40.80;;;;;;4920049;29;20488;-81
2022/06/19 13:08:00;;;;;;;5.05;1.65;;;36.50;40.10;;;;;;4920277;29;20024;-78
2022/06/19 13:10:47;;;;;;;3.35;1.70;;;36.80;39.30;;;;;;4919011;29;20024;-80
2022/06/19 13:13:29;;;;;;;3.93;1.57;;;36.90;40.00;;;;;;4927325;29;20035;-79
2022/06/19 13:16:23;;;;;;;3.70;1.63;;;37.40;39.90;;;;;;4937926;29;20032;-78
2022/06/19 13:19:02;;;;;;;4.15;1.27;;;37.50;38.20;;;;;;4917149;29;20057;-79
2022/06/19 13:22:04;;;;;;;5.15;1.55;;;36.50;39.00;;;;;;4938821;29;20032;-79
2022/06/19 13:24:37;;;;;;;5.70;2.40;;;36.70;39.40;;;;;;4937075;29;20488;-79
2022/06/19 13:27:29;;;;;;;4.50;1.63;;;36.40;39.10;;;;;;4938943;29;20071;-80